Radiosonde details



Informationen :

Serial : D26019510
Type : Graw DFM
Frequency : 403.010MHz
Launchsite : Tampa Bay Area
Nearest town : Indian Shores, US (35.9km)

Altitude (Max) : 34220m at 2026-08-30 12:53:09
Speed (Max) : 122km/h at altitude 32532m

Average speed : 31km/h
Average ascent rate : 5m/s
Average descent rate : -6m/s
Ascent rate (Max) : 12.6m/s
Descent rate (Max): -42.2m/s

First frame :
ARGUS2 at 2026-08-30 11:06:05 at altitude 1265m (OG: 1223m)
Last frame :
ARGUS2 at 2026-08-30 14:09:29 at altitude 1889m (OG: 1847m)

Flighttime : 3h3m24s
Ascent time : 1h47m4s
Descent time : 1h16m20s
Uptime : -
Killtimer : -

Distance (Straight line distance): 77km

Distance (Route):


Frames : 484


Measurement :

Temperature : 15.6°C
Humidity : 0%
Pressure : 0hPa


Vertical profile (SkewT) :


Elevation profile :



Receiving stations :


Receiver Frames First received Last received
ARGUS2 484 2026-08-30 11:06:05 2026-08-30 14:09:29

Share per receiver :



All frames :


Receiver Date Latitude Longitude Direction Speed Altitude Climb Temperature Humidity Pressure Voltage Killtimer Uptime BKT XDATA
ARGUS22026-08-30 14:09:2927.76748-83.19682318°9km/h1889m-9.8m/s15.6°C0%0hPa0V00:00:0000:00:0000:00:00
ARGUS22026-08-30 14:09:0927.76721-83.19656334°5km/h2079m-8.6m/s14.7°C0%0hPa0V00:00:0000:00:0000:00:00
ARGUS22026-08-30 14:08:4327.76692-83.19634352°4km/h2252m-4.9m/s14.0°C0%0hPa0V00:00:0000:00:0000:00:00
ARGUS22026-08-30 14:08:1727.76673-83.1964036°4km/h2370m-4.2m/s13.6°C0%0hPa0V00:00:0000:00:0000:00:00
ARGUS22026-08-30 14:07:5127.76673-83.19648133°4km/h2515m-5.6m/s13.0°C0%0hPa0V00:00:0000:00:0000:00:00
ARGUS22026-08-30 14:07:2827.76692-83.19666147°5km/h2643m-5.4m/s12.0°C0%0hPa0V00:00:0000:00:0000:00:00
ARGUS22026-08-30 14:07:0827.76718-83.19663229°5km/h2756m-4.7m/s11.6°C0%0hPa0V00:00:0000:00:0000:00:00
ARGUS22026-08-30 14:06:4727.76737-83.19617255°11km/h2854m-4.9m/s11.3°C0%0hPa0V00:00:0000:00:0000:00:00
ARGUS22026-08-30 14:06:2727.76746-83.19556269°9km/h2958m-4.9m/s10.3°C0%0hPa0V00:00:0000:00:0000:00:00
ARGUS22026-08-30 14:05:4527.76728-83.19453279°7km/h3158m-4.3m/s8.6°C0%0hPa0V00:00:0000:00:0000:00:00
ARGUS22026-08-30 14:05:2527.76723-83.19427352°2km/h3252m-4.7m/s8.1°C0%0hPa0V00:00:0000:00:0000:00:00
ARGUS22026-08-30 14:05:0527.76697-83.1943635°9km/h3352m-4.8m/s8.0°C0%0hPa0V00:00:0000:00:0000:00:00
ARGUS22026-08-30 14:04:4327.76683-83.19462100°4km/h3457m-5.0m/s7.4°C0%0hPa0V00:00:0000:00:0000:00:00
ARGUS22026-08-30 14:04:2227.76688-83.19491115°5km/h3565m-4.9m/s6.4°C0%0hPa0V00:00:0000:00:0000:00:00
ARGUS22026-08-30 14:04:0127.76706-83.19511164°5km/h3676m-4.9m/s5.6°C0%0hPa0V00:00:0000:00:0000:00:00
ARGUS22026-08-30 14:03:3727.76722-83.19514248°2km/h3790m-4.9m/s4.8°C0%0hPa0V00:00:0000:00:0000:00:00
ARGUS22026-08-30 14:02:2827.76663-83.1955022°7km/h4137m-4.5m/s2.3°C0%0hPa0V00:00:0000:00:0000:00:00
ARGUS22026-08-30 14:02:0727.76632-83.1956118°4km/h4243m-4.7m/s1.8°C0%0hPa0V00:00:0000:00:0000:00:00
ARGUS22026-08-30 14:01:4627.76616-83.1956648°2km/h4353m-5.0m/s1.3°C0%0hPa0V00:00:0000:00:0000:00:00
ARGUS22026-08-30 14:01:2627.76616-83.19582102°4km/h4460m-5.3m/s0.9°C0%0hPa0V00:00:0000:00:0000:00:00
ARGUS22026-08-30 14:01:0527.76620-83.19595201°4km/h4572m-5.2m/s0.2°C0%0hPa0V00:00:0000:00:0000:00:00
ARGUS22026-08-30 14:00:4427.76636-83.19575237°7km/h4685m-5.1m/s-0.2°C0%0hPa0V00:00:0000:00:0000:00:00
ARGUS22026-08-30 14:00:2227.76651-83.19541248°7km/h4804m-5.3m/s-0.7°C0%0hPa0V00:00:0000:00:0000:00:00
ARGUS22026-08-30 13:59:4227.76684-83.19440248°9km/h5028m-5.5m/s-2.2°C0%0hPa0V00:00:0000:00:0000:00:00
ARGUS22026-08-30 13:59:2127.76710-83.19386249°13km/h5136m-5.6m/s-2.5°C0%0hPa0V00:00:0000:00:0000:00:00
ARGUS22026-08-30 13:59:0027.76728-83.19314263°13km/h5256m-5.3m/s-3.3°C0%0hPa0V00:00:0000:00:0000:00:00
ARGUS22026-08-30 13:58:3927.76748-83.19245241°13km/h5371m-5.5m/s-3.9°C0%0hPa0V00:00:0000:00:0000:00:00
ARGUS22026-08-30 13:58:1827.76789-83.19173240°13km/h5492m-5.7m/s-4.6°C0%0hPa0V00:00:0000:00:0000:00:00
ARGUS22026-08-30 13:57:5727.76820-83.19111240°9km/h5613m-5.8m/s-4.7°C0%0hPa0V00:00:0000:00:0000:00:00
ARGUS22026-08-30 13:57:3727.76854-83.19042247°16km/h5735m-5.7m/s-5.5°C0%0hPa0V00:00:0000:00:0000:00:00
ARGUS22026-08-30 13:57:1627.76894-83.18958245°16km/h5852m-5.6m/s-6.1°C0%0hPa0V00:00:0000:00:0000:00:00
ARGUS22026-08-30 13:56:5627.76915-83.18884270°9km/h5972m-5.4m/s-6.5°C0%0hPa0V00:00:0000:00:0000:00:00
ARGUS22026-08-30 13:56:3427.76897-83.18831299°15km/h6091m-5.4m/s-6.8°C0%0hPa0V00:00:0000:00:0000:00:00
ARGUS22026-08-30 13:56:1327.76852-83.18752306°16km/h6210m-5.6m/s-7.5°C0%0hPa0V00:00:0000:00:0000:00:00
ARGUS22026-08-30 13:55:5227.76806-83.18667294°16km/h6329m-6.0m/s-8.3°C0%0hPa0V00:00:0000:00:0000:00:00
ARGUS22026-08-30 13:52:0527.76817-83.17587250°22km/h7699m-5.7m/s-16.0°C0%0hPa0V00:00:0000:00:0000:00:00
ARGUS22026-08-30 13:51:4427.76860-83.17474242°20km/h7832m-6.1m/s-16.8°C0%0hPa0V00:00:0000:00:0000:00:00
ARGUS22026-08-30 13:51:2327.76917-83.17374232°20km/h7998m-8.2m/s-17.6°C0%0hPa0V00:00:0000:00:0000:00:00
ARGUS22026-08-30 13:50:4227.77027-83.17220237°16km/h8402m-10.6m/s-20.8°C0%0hPa0V00:00:0000:00:0000:00:00
ARGUS22026-08-30 13:50:2227.77087-83.17132235°18km/h8624m-10.1m/s-22.2°C0%0hPa0V00:00:0000:00:0000:00:00
ARGUS22026-08-30 13:50:0127.77134-83.17045241°18km/h8762m-3.9m/s-23.3°C0%0hPa0V00:00:0000:00:0000:00:00
ARGUS22026-08-30 13:49:4127.77181-83.16957239°16km/h8840m-3.9m/s-24.0°C0%0hPa0V00:00:0000:00:0000:00:00
ARGUS22026-08-30 13:49:2027.77222-83.16883238°16km/h8914m-3.6m/s-24.7°C0%0hPa0V00:00:0000:00:0000:00:00
ARGUS22026-08-30 13:49:0027.77261-83.16805242°15km/h8989m-3.8m/s-25.4°C0%0hPa0V00:00:0000:00:0000:00:00
ARGUS22026-08-30 13:48:3927.77290-83.16736238°11km/h9063m-3.7m/s-25.8°C0%0hPa0V00:00:0000:00:0000:00:00
ARGUS22026-08-30 13:48:1927.77315-83.16672241°11km/h9142m-3.6m/s-26.4°C0%0hPa0V00:00:0000:00:0000:00:00
ARGUS22026-08-30 13:47:3727.77361-83.16533248°11km/h9298m-3.8m/s-27.1°C0%0hPa0V00:00:0000:00:0000:00:00
ARGUS22026-08-30 13:47:1627.77377-83.16464269°11km/h9374m-4.0m/s-27.4°C0%0hPa0V00:00:0000:00:0000:00:00
ARGUS22026-08-30 13:46:5627.77367-83.16405291°11km/h9443m-3.5m/s-28.0°C0%0hPa0V00:00:0000:00:0000:00:00
ARGUS22026-08-30 13:46:3627.77345-83.16342294°11km/h9520m-3.7m/s-28.7°C0%0hPa0V00:00:0000:00:0000:00:00
ARGUS22026-08-30 13:46:1527.77321-83.16291305°9km/h9592m-3.4m/s-29.3°C0%0hPa0V00:00:0000:00:0000:00:00
ARGUS22026-08-30 13:45:5527.77277-83.16240323°13km/h9667m-4.0m/s-29.8°C0%0hPa0V00:00:0000:00:0000:00:00
ARGUS22026-08-30 13:45:3427.77225-83.16190305°15km/h9737m-3.6m/s-30.4°C0%0hPa0V00:00:0000:00:0000:00:00
ARGUS22026-08-30 13:45:1427.77173-83.16117307°16km/h9814m-3.5m/s-30.9°C0%0hPa0V00:00:0000:00:0000:00:00
ARGUS22026-08-30 13:44:5327.77119-83.16046315°16km/h9886m-3.9m/s-31.4°C0%0hPa0V00:00:0000:00:0000:00:00
ARGUS22026-08-30 13:44:3327.77050-83.15973322°18km/h9962m-3.9m/s-31.9°C0%0hPa0V00:00:0000:00:0000:00:00
ARGUS22026-08-30 13:44:1127.76970-83.15900321°18km/h10039m-3.7m/s-32.5°C0%0hPa0V00:00:0000:00:0000:00:00
ARGUS22026-08-30 13:43:5027.76897-83.15810309°20km/h10117m-3.5m/s-33.2°C0%0hPa0V00:00:0000:00:0000:00:00
ARGUS22026-08-30 13:43:2927.76830-83.15706302°22km/h10193m-3.7m/s-33.9°C0%0hPa0V00:00:0000:00:0000:00:00
ARGUS22026-08-30 13:43:0927.76772-83.15601301°18km/h10269m-3.7m/s-34.5°C0%0hPa0V00:00:0000:00:0000:00:00
ARGUS22026-08-30 13:42:4827.76723-83.15504302°16km/h10344m-3.5m/s-35.2°C0%0hPa0V00:00:0000:00:0000:00:00
ARGUS22026-08-30 13:42:2827.76675-83.15410310°16km/h10420m-3.8m/s-35.8°C0%0hPa0V00:00:0000:00:0000:00:00
ARGUS22026-08-30 13:42:0727.76628-83.15333306°16km/h10488m-3.6m/s-36.4°C0%0hPa0V00:00:0000:00:0000:00:00
ARGUS22026-08-30 13:41:4727.76578-83.15244299°20km/h10559m-3.8m/s-37.0°C0%0hPa0V00:00:0000:00:0000:00:00
ARGUS22026-08-30 13:41:2527.76524-83.15147302°20km/h10630m-3.5m/s-37.6°C0%0hPa0V00:00:0000:00:0000:00:00
ARGUS22026-08-30 13:41:0927.76470-83.15053304°20km/h10699m-3.6m/s-38.2°C0%0hPa0V00:00:0000:00:0000:00:00
ARGUS22026-08-30 13:40:4627.76413-83.14951303°20km/h10772m-3.5m/s-38.9°C0%0hPa0V00:00:0000:00:0000:00:00
ARGUS22026-08-30 13:40:3827.76364-83.14855302°18km/h10843m-3.8m/s-39.4°C0%0hPa0V00:00:0000:00:0000:00:00
ARGUS22026-08-30 13:40:0327.76310-83.14758309°18km/h10920m-3.7m/s-40.0°C0%0hPa0V00:00:0000:00:0000:00:00
ARGUS22026-08-30 13:39:4327.76254-83.14677311°18km/h10993m-3.5m/s-40.5°C0%0hPa0V00:00:0000:00:0000:00:00
ARGUS22026-08-30 13:39:2327.76193-83.14603314°16km/h11066m-3.6m/s-41.1°C0%0hPa0V00:00:0000:00:0000:00:00
ARGUS22026-08-30 13:39:0227.76118-83.14526322°22km/h11140m-3.7m/s-41.6°C0%0hPa0V00:00:0000:00:0000:00:00
ARGUS22026-08-30 13:38:4227.76012-83.14432320°26km/h11218m-3.7m/s-42.0°C0%0hPa0V00:00:0000:00:0000:00:00
ARGUS22026-08-30 13:38:2027.75895-83.14335328°29km/h11299m-4.1m/s-42.8°C0%0hPa0V00:00:0000:00:0000:00:00
ARGUS22026-08-30 13:37:5927.75772-83.14237327°29km/h11380m-3.9m/s-43.5°C0%0hPa0V00:00:0000:00:0000:00:00
ARGUS22026-08-30 13:37:3727.75641-83.14128325°29km/h11465m-4.1m/s-44.1°C0%0hPa0V00:00:0000:00:0000:00:00
ARGUS22026-08-30 13:37:1627.75516-83.14027325°27km/h11553m-4.3m/s-44.8°C0%0hPa0V00:00:0000:00:0000:00:00
ARGUS22026-08-30 13:36:5527.75406-83.13934320°27km/h11631m-4.3m/s-45.5°C0%0hPa0V00:00:0000:00:0000:00:00
ARGUS22026-08-30 13:36:3427.75288-83.13827323°27km/h11716m-3.9m/s-46.2°C0%0hPa0V00:00:0000:00:0000:00:00
ARGUS22026-08-30 13:36:1427.75177-83.13728327°27km/h11798m-4.0m/s-47.0°C0%0hPa0V00:00:0000:00:0000:00:00
ARGUS22026-08-30 13:35:5427.75060-83.13630326°29km/h11884m-4.2m/s-47.7°C0%0hPa0V00:00:0000:00:0000:00:00
ARGUS22026-08-30 13:35:3327.74941-83.13533322°31km/h11968m-4.3m/s-48.4°C0%0hPa0V00:00:0000:00:0000:00:00
ARGUS22026-08-30 13:35:1327.74816-83.13415322°31km/h12056m-4.1m/s-49.1°C0%0hPa0V00:00:0000:00:0000:00:00
ARGUS22026-08-30 13:34:5227.74701-83.13297314°31km/h12139m-4.1m/s-49.8°C0%0hPa0V00:00:0000:00:0000:00:00
ARGUS22026-08-30 13:34:3227.74582-83.13170319°31km/h12228m-4.3m/s-50.5°C0%0hPa0V00:00:0000:00:0000:00:00
ARGUS22026-08-30 13:34:1127.74464-83.13055325°31km/h12312m-4.0m/s-51.3°C0%0hPa0V00:00:0000:00:0000:00:00
ARGUS22026-08-30 13:33:5127.74331-83.12962331°29km/h12396m-4.0m/s-51.9°C0%0hPa0V00:00:0000:00:0000:00:00
ARGUS22026-08-30 13:33:2927.74207-83.12880330°26km/h12481m-4.2m/s-52.5°C0%0hPa0V00:00:0000:00:0000:00:00
ARGUS22026-08-30 13:33:0927.74090-83.12803332°27km/h12562m-4.1m/s-53.2°C0%0hPa0V00:00:0000:00:0000:00:00
ARGUS22026-08-30 13:32:4927.73959-83.12734335°26km/h12647m-4.1m/s-53.9°C0%0hPa0V00:00:0000:00:0000:00:00
ARGUS22026-08-30 13:32:2827.73836-83.12671338°26km/h12728m-4.5m/s-54.6°C0%0hPa0V00:00:0000:00:0000:00:00
ARGUS22026-08-30 13:32:0827.73715-83.12614339°24km/h12812m-4.2m/s-55.4°C0%0hPa0V00:00:0000:00:0000:00:00
ARGUS22026-08-30 13:31:4727.73609-83.12562338°22km/h12892m-4.0m/s-56.0°C0%0hPa0V00:00:0000:00:0000:00:00
ARGUS22026-08-30 13:31:2627.73510-83.12507335°20km/h12977m-4.2m/s-56.7°C0%0hPa0V00:00:0000:00:0000:00:00
ARGUS22026-08-30 13:31:0627.73425-83.12447325°20km/h13059m-3.9m/s-57.3°C0%0hPa0V00:00:0000:00:0000:00:00
ARGUS22026-08-30 13:30:4527.73341-83.12375324°20km/h13141m-4.1m/s-57.9°C0%0hPa0V00:00:0000:00:0000:00:00
ARGUS22026-08-30 13:30:2527.73272-83.12290309°20km/h13221m-4.2m/s-58.4°C0%0hPa0V00:00:0000:00:0000:00:00
ARGUS22026-08-30 13:30:0527.73208-83.12202312°18km/h13306m-4.3m/s-59.0°C0%0hPa0V00:00:0000:00:0000:00:00
ARGUS22026-08-30 13:29:4427.73143-83.12121316°16km/h13387m-4.3m/s-59.6°C0%0hPa0V00:00:0000:00:0000:00:00
ARGUS22026-08-30 13:29:2327.73085-83.12056314°11km/h13473m-4.3m/s-60.2°C0%0hPa0V00:00:0000:00:0000:00:00
ARGUS22026-08-30 13:29:0327.73043-83.12014318°11km/h13556m-4.1m/s-60.8°C0%0hPa0V00:00:0000:00:0000:00:00
ARGUS22026-08-30 13:28:4327.72996-83.11974318°9km/h13645m-4.2m/s-61.5°C0%0hPa0V00:00:0000:00:0000:00:00
ARGUS22026-08-30 13:28:2127.72971-83.11947311°4km/h13737m-4.3m/s-62.1°C0%0hPa0V00:00:0000:00:0000:00:00
ARGUS22026-08-30 13:28:0127.72967-83.11929274°4km/h13824m-4.4m/s-62.7°C0%0hPa0V00:00:0000:00:0000:00:00
ARGUS22026-08-30 13:27:4027.72973-83.11904284°4km/h13916m-4.7m/s-63.4°C0%0hPa0V00:00:0000:00:0000:00:00
ARGUS22026-08-30 13:27:2027.72966-83.11885316°5km/h14008m-4.6m/s-63.3°C0%0hPa0V00:00:0000:00:0000:00:00
ARGUS22026-08-30 13:26:5927.72949-83.1187925°2km/h14106m-4.7m/s-63.8°C0%0hPa0V00:00:0000:00:0000:00:00
ARGUS22026-08-30 13:26:1927.72915-83.1192359°11km/h14304m-5.0m/s-64.9°C0%0hPa0V00:00:0000:00:0000:00:00
ARGUS22026-08-30 13:25:5827.72893-83.1198080°11km/h14403m-5.0m/s-65.4°C0%0hPa0V00:00:0000:00:0000:00:00
ARGUS22026-08-30 13:25:3827.72905-83.12031134°9km/h14509m-4.9m/s-66.1°C0%0hPa0V00:00:0000:00:0000:00:00
ARGUS22026-08-30 13:25:1727.72941-83.12064140°9km/h14608m-5.0m/s-66.9°C0%0hPa0V00:00:0000:00:0000:00:00
ARGUS22026-08-30 13:24:5727.72984-83.12106133°13km/h14711m-4.9m/s-67.4°C0%0hPa0V00:00:0000:00:0000:00:00
ARGUS22026-08-30 13:24:3627.73060-83.12173146°20km/h14814m-5.1m/s-67.5°C0%0hPa0V00:00:0000:00:0000:00:00
ARGUS22026-08-30 13:24:1627.73149-83.12246143°20km/h14921m-4.8m/s-68.4°C0%0hPa0V00:00:0000:00:0000:00:00
ARGUS22026-08-30 13:23:5527.73230-83.12324150°18km/h15020m-5.0m/s-69.2°C0%0hPa0V00:00:0000:00:0000:00:00
ARGUS22026-08-30 13:23:3527.73321-83.12371157°22km/h15125m-4.9m/s-69.0°C0%0hPa0V00:00:0000:00:0000:00:00
ARGUS22026-08-30 13:23:1427.73398-83.12398170°11km/h15225m-4.4m/s-69.4°C0%0hPa0V00:00:0000:00:0000:00:00
ARGUS22026-08-30 13:22:5227.73444-83.12384182°13km/h15323m-4.7m/s-68.5°C0%0hPa0V00:00:0000:00:0000:00:00
ARGUS22026-08-30 13:22:3127.73487-83.12373194°7km/h15426m-4.8m/s-67.3°C0%0hPa0V00:00:0000:00:0000:00:00
ARGUS22026-08-30 13:22:0727.73568-83.12333209°26km/h15541m-5.2m/s-66.5°C0%0hPa0V00:00:0000:00:0000:00:00
ARGUS22026-08-30 13:21:4627.73665-83.12214241°31km/h15647m-5.3m/s-66.2°C0%0hPa0V00:00:0000:00:0000:00:00
ARGUS22026-08-30 13:21:2527.73738-83.12028250°37km/h15760m-5.5m/s-65.9°C0%0hPa0V00:00:0000:00:0000:00:00
ARGUS22026-08-30 13:21:0527.73789-83.11844258°29km/h15872m-5.7m/s-66.3°C0%0hPa0V00:00:0000:00:0000:00:00
ARGUS22026-08-30 13:20:4527.73798-83.11692284°22km/h15993m-6.0m/s-66.3°C0%0hPa0V00:00:0000:00:0000:00:00
ARGUS22026-08-30 13:20:2427.73762-83.11588300°20km/h16110m-5.9m/s-66.6°C0%0hPa0V00:00:0000:00:0000:00:00
ARGUS22026-08-30 13:20:0427.73700-83.11474315°22km/h16232m-5.7m/s-66.3°C0%0hPa0V00:00:0000:00:0000:00:00
ARGUS22026-08-30 13:19:4327.73612-83.11420330°22km/h16344m-5.5m/s-65.2°C0%0hPa0V00:00:0000:00:0000:00:00
ARGUS22026-08-30 13:19:2327.73510-83.11323321°33km/h16461m-5.7m/s-64.4°C0%0hPa0V00:00:0000:00:0000:00:00
ARGUS22026-08-30 13:19:0127.73378-83.11196321°31km/h16580m-5.8m/s-64.7°C0%0hPa0V00:00:0000:00:0000:00:00
ARGUS22026-08-30 13:18:4127.73251-83.11094328°33km/h16692m-5.6m/s-65.3°C0%0hPa0V00:00:0000:00:0000:00:00
ARGUS22026-08-30 13:18:2027.73108-83.10977325°35km/h16805m-5.3m/s-66.2°C0%0hPa0V00:00:0000:00:0000:00:00
ARGUS22026-08-30 13:18:0027.72987-83.10866317°27km/h16910m-5.1m/s-66.4°C0%0hPa0V00:00:0000:00:0000:00:00
ARGUS22026-08-30 13:17:3927.72863-83.10785340°27km/h17026m-5.8m/s-65.9°C0%0hPa0V00:00:0000:00:0000:00:00
ARGUS22026-08-30 13:17:1927.72763-83.10740338°15km/h17142m-6.0m/s-65.9°C0%0hPa0V00:00:0000:00:0000:00:00
ARGUS22026-08-30 13:16:5827.72724-83.10700276°13km/h17272m-6.2m/s-65.5°C0%0hPa0V00:00:0000:00:0000:00:00
ARGUS22026-08-30 13:16:3827.72738-83.10622246°16km/h17400m-6.6m/s-65.3°C0%0hPa0V00:00:0000:00:0000:00:00
ARGUS22026-08-30 13:16:1827.72754-83.10514277°16km/h17538m-6.5m/s-64.9°C0%0hPa0V00:00:0000:00:0000:00:00
ARGUS22026-08-30 13:15:5727.72749-83.10430284°13km/h17670m-6.6m/s-65.7°C0%0hPa0V00:00:0000:00:0000:00:00
ARGUS22026-08-30 13:15:3727.72736-83.10376254°7km/h17807m-6.4m/s-66.3°C0%0hPa0V00:00:0000:00:0000:00:00
ARGUS22026-08-30 13:15:1627.72794-83.10332205°24km/h17938m-6.2m/s-66.1°C0%0hPa0V00:00:0000:00:0000:00:00
ARGUS22026-08-30 13:14:5627.72915-83.10267221°22km/h18073m-6.2m/s-66.4°C0%0hPa0V00:00:0000:00:0000:00:00
ARGUS22026-08-30 13:14:3427.72969-83.10174265°15km/h18201m-5.9m/s-66.6°C0%0hPa0V00:00:0000:00:0000:00:00
ARGUS22026-08-30 13:14:1427.72942-83.10034300°24km/h18329m-6.2m/s-66.2°C0%0hPa0V00:00:0000:00:0000:00:00
ARGUS22026-08-30 13:13:5227.72878-83.09908292°20km/h18459m-6.2m/s-66.3°C0%0hPa0V00:00:0000:00:0000:00:00
ARGUS22026-08-30 13:13:3227.72861-83.09840257°9km/h18589m-6.3m/s-65.1°C0%0hPa0V00:00:0000:00:0000:00:00
ARGUS22026-08-30 13:13:1127.72912-83.09766224°26km/h18715m-6.2m/s-64.0°C0%0hPa0V00:00:0000:00:0000:00:00
ARGUS22026-08-30 13:12:5027.73016-83.09644226°31km/h18855m-6.7m/s-64.9°C0%0hPa0V00:00:0000:00:0000:00:00
ARGUS22026-08-30 13:12:2927.73133-83.09470241°42km/h19002m-7.2m/s-64.0°C0%0hPa0V00:00:0000:00:0000:00:00
ARGUS22026-08-30 13:12:0927.73206-83.09236269°40km/h19153m-7.5m/s-63.5°C0%0hPa0V00:00:0000:00:0000:00:00
ARGUS22026-08-30 13:11:4827.73170-83.08995290°38km/h19319m-8.4m/s-63.6°C0%0hPa0V00:00:0000:00:0000:00:00
ARGUS22026-08-30 13:11:2827.73110-83.08840286°20km/h19488m-8.6m/s-63.9°C0%0hPa0V00:00:0000:00:0000:00:00
ARGUS22026-08-30 13:11:0827.73130-83.08739229°22km/h19668m-8.7m/s-61.8°C0%0hPa0V00:00:0000:00:0000:00:00
ARGUS22026-08-30 13:10:4727.73228-83.08581243°46km/h19843m-8.6m/s-61.0°C0%0hPa0V00:00:0000:00:0000:00:00
ARGUS22026-08-30 13:10:2727.73304-83.08263261°66km/h20025m-8.4m/s-59.7°C0%0hPa0V00:00:0000:00:0000:00:00
ARGUS22026-08-30 13:10:0527.73385-83.07882254°62km/h20207m-8.5m/s-59.9°C0%0hPa0V00:00:0000:00:0000:00:00
ARGUS22026-08-30 13:09:4427.73458-83.07517264°69km/h20383m-8.3m/s-60.2°C0%0hPa0V00:00:0000:00:0000:00:00
ARGUS22026-08-30 13:09:2027.73485-83.07011265°69km/h20581m-7.8m/s-60.2°C0%0hPa0V00:00:0000:00:0000:00:00
ARGUS22026-08-30 13:08:5927.73512-83.06623271°66km/h20736m-7.9m/s-59.4°C0%0hPa0V00:00:0000:00:0000:00:00
ARGUS22026-08-30 13:08:3927.73456-83.06250288°57km/h20907m-8.0m/s-59.0°C0%0hPa0V00:00:0000:00:0000:00:00
ARGUS22026-08-30 13:08:1927.73429-83.05969265°44km/h21075m-8.6m/s-57.6°C0%0hPa0V00:00:0000:00:0000:00:00
ARGUS22026-08-30 13:07:5827.73437-83.05728271°33km/h21262m-9.0m/s-57.6°C0%0hPa0V00:00:0000:00:0000:00:00
ARGUS22026-08-30 13:07:3727.73447-83.05543254°37km/h21457m-9.4m/s-57.0°C0%0hPa0V00:00:0000:00:0000:00:00
ARGUS22026-08-30 13:07:1627.73532-83.05303250°57km/h21651m-9.7m/s-57.0°C0%0hPa0V00:00:0000:00:0000:00:00
ARGUS22026-08-30 13:06:5627.73580-83.05008267°47km/h21861m-10.4m/s-56.6°C0%0hPa0V00:00:0000:00:0000:00:00
ARGUS22026-08-30 13:06:3527.73621-83.04710266°58km/h22067m-10.5m/s-56.9°C0%0hPa0V00:00:0000:00:0000:00:00
ARGUS22026-08-30 13:06:1427.73632-83.04342267°55km/h22286m-10.4m/s-57.2°C0%0hPa0V00:00:0000:00:0000:00:00
ARGUS22026-08-30 13:05:4527.73678-83.03918258°51km/h22597m-10.5m/s-57.4°C0%0hPa0V00:00:0000:00:0000:00:00
ARGUS22026-08-30 13:05:2427.73703-83.03591266°57km/h22806m-10.2m/s-56.3°C0%0hPa0V00:00:0000:00:0000:00:00
ARGUS22026-08-30 13:05:0327.73724-83.03219277°71km/h23025m-10.5m/s-56.1°C0%0hPa0V00:00:0000:00:0000:00:00
ARGUS22026-08-30 13:04:2227.73607-83.02483272°66km/h23464m-11.1m/s-54.6°C0%0hPa0V00:00:0000:00:0000:00:00
ARGUS22026-08-30 13:04:0127.73550-83.02093289°60km/h23696m-12.3m/s-54.1°C0%0hPa0V00:00:0000:00:0000:00:00
ARGUS22026-08-30 13:03:4027.73428-83.01823290°44km/h24184m-21.8m/s-53.1°C0%0hPa0V00:00:0000:00:0000:00:00
ARGUS22026-08-30 13:03:2027.73397-83.01529277°57km/h24634m-17.5m/s-53.1°C0%0hPa0V00:00:0000:00:0000:00:00
ARGUS22026-08-30 13:02:4627.73287-83.00925314°66km/h25126m-10.8m/s-50.6°C0%0hPa0V00:00:0000:00:0000:00:00
ARGUS22026-08-30 13:02:1327.73063-83.00498337°20km/h25470m-9.8m/s-52.3°C0%0hPa0V00:00:0000:00:0000:00:00
ARGUS22026-08-30 13:01:5227.73010-83.00340269°4km/h25702m-11.6m/s0°C0%0hPa0V00:00:0000:00:0000:00:00
ARGUS22026-08-30 13:01:0527.73166-82.99783258°60km/h26245m-11.9m/s-50.3°C0%0hPa0V00:00:0000:00:0000:00:00
ARGUS22026-08-30 13:00:0927.73315-82.99185229°73km/h26902m-11.4m/s-48.7°C0%0hPa0V00:00:0000:00:0000:00:00
ARGUS22026-08-30 12:59:3627.73582-82.98726235°78km/h27313m-12.7m/s-48.5°C0%0hPa0V00:00:0000:00:0000:00:00
ARGUS22026-08-30 12:59:1527.73670-82.98326243°66km/h27592m-13.5m/s-47.2°C0%0hPa0V00:00:0000:00:0000:00:00
ARGUS22026-08-30 12:56:2727.74242-82.95017288°40km/h29873m-14.8m/s-41.1°C0%0hPa0V00:00:0000:00:0000:00:00
ARGUS22026-08-30 12:56:0527.74130-82.94649295°62km/h30203m-15.6m/s-40.5°C0%0hPa0V00:00:0000:00:0000:00:00
ARGUS22026-08-30 12:54:1427.74058-82.92837294°78km/h32632m-42.2m/s-42.5°C0%0hPa0V00:00:0000:00:0000:00:00
ARGUS22026-08-30 12:53:4927.73953-82.92499270°35km/h33374m-23.0m/s-35.5°C0%0hPa0V00:00:0000:00:0000:00:00
ARGUS22026-08-30 12:53:2927.73990-82.92336252°38km/h33877m-40.4m/s-35.3°C0%0hPa0V00:00:0000:00:0000:00:00
ARGUS22026-08-30 12:53:0927.73993-82.9212826km/h34220m5.9m/s-35.2°C0%0hPa0V00:00:0000:00:0000:00:00
ARGUS22026-08-30 12:52:4727.73998-82.91956258°73km/h34063m12.1m/s-34.9°C0%0hPa0V00:00:0000:00:0000:00:00
ARGUS22026-08-30 12:52:2827.74071-82.91762331°64km/h33884m7.8m/s-34.9°C0%0hPa0V00:00:0000:00:0000:00:00
ARGUS22026-08-30 12:52:0527.74090-82.91588300°62km/h33758m4.2m/s-34.5°C0%0hPa0V00:00:0000:00:0000:00:00
ARGUS22026-08-30 12:51:4527.74125-82.91398212°57km/h33619m12.6m/s-33.8°C0%0hPa0V00:00:0000:00:0000:00:00
ARGUS22026-08-30 12:51:2427.74138-82.9129151°31km/h33503m2.6m/s-33.6°C0%0hPa0V00:00:0000:00:0000:00:00
ARGUS22026-08-30 12:51:0327.74085-82.91133274°69km/h33386m1.2m/s-34.3°C0%0hPa0V00:00:0000:00:0000:00:00
ARGUS22026-08-30 12:50:4327.74099-82.90956232°42km/h33283m8.6m/s-35.1°C0%0hPa0V00:00:0000:00:0000:00:00
ARGUS22026-08-30 12:50:2327.74069-82.90791339°51km/h33171m1.8m/s-38.0°C0%0hPa0V00:00:0000:00:0000:00:00
ARGUS22026-08-30 12:50:0127.73944-82.90510279°99km/h33048m7.4m/s-39.7°C0%0hPa0V00:00:0000:00:0000:00:00
ARGUS22026-08-30 12:49:4027.73812-82.90148335°57km/h32917m5.9m/s-39.7°C0%0hPa0V00:00:0000:00:0000:00:00
ARGUS22026-08-30 12:49:1927.73684-82.89817339°77km/h32807m3.8m/s-40.7°C0%0hPa0V00:00:0000:00:0000:00:00
ARGUS22026-08-30 12:48:5927.73487-82.89397294°73km/h32677m7.8m/s-42.3°C0%0hPa0V00:00:0000:00:0000:00:00
ARGUS22026-08-30 12:48:3727.73328-82.88910284°120km/h32532m1.6m/s-43.7°C0%0hPa0V00:00:0000:00:0000:00:00
ARGUS22026-08-30 12:48:1427.73134-82.88327283°78km/h32362m6.8m/s-45.0°C0%0hPa0V00:00:0000:00:0000:00:00
ARGUS22026-08-30 12:47:5327.73087-82.87814269°111km/h32202m9.4m/s-44.7°C0%0hPa0V00:00:0000:00:0000:00:00
ARGUS22026-08-30 12:47:3227.73082-82.87314274°77km/h32050m10.4m/s-44.0°C0%0hPa0V00:00:0000:00:0000:00:00
ARGUS22026-08-30 12:47:1227.73107-82.86890257°46km/h31902m4.9m/s-43.6°C0%0hPa0V00:00:0000:00:0000:00:00
ARGUS22026-08-30 12:46:5227.73153-82.86442267°110km/h31760m8.1m/s-43.7°C0%0hPa0V00:00:0000:00:0000:00:00
ARGUS22026-08-30 12:46:3027.73273-82.85947241°49km/h31621m4.7m/s-43.8°C0%0hPa0V00:00:0000:00:0000:00:00
ARGUS22026-08-30 12:46:0827.73413-82.85508262°106km/h31497m6.5m/s-43.4°C0%0hPa0V00:00:0000:00:0000:00:00
ARGUS22026-08-30 12:45:4827.73523-82.85116248°78km/h31385m5.1m/s-42.5°C0%0hPa0V00:00:0000:00:0000:00:00
ARGUS22026-08-30 12:45:2827.73632-82.84781270°35km/h31262m1.2m/s-41.8°C0%0hPa0V00:00:0000:00:0000:00:00
ARGUS22026-08-30 12:45:0727.73706-82.84431254°95km/h31136m3.3m/s-41.4°C0%0hPa0V00:00:0000:00:0000:00:00
ARGUS22026-08-30 12:44:4627.73731-82.84111279°49km/h30992m4.4m/s-41.1°C0%0hPa0V00:00:0000:00:0000:00:00
ARGUS22026-08-30 12:44:2427.73699-82.83791271°60km/h30865m9.7m/s-41.1°C0%0hPa0V00:00:0000:00:0000:00:00
ARGUS22026-08-30 12:44:0327.73731-82.83453238°62km/h30728m8.6m/s-41.6°C0%0hPa0V00:00:0000:00:0000:00:00
ARGUS22026-08-30 12:43:4327.73751-82.83179270°35km/h30592m2.3m/s-41.5°C0%0hPa0V00:00:0000:00:0000:00:00
ARGUS22026-08-30 12:43:2227.73678-82.82842299°89km/h30444m4.6m/s-40.8°C0%0hPa0V00:00:0000:00:0000:00:00
ARGUS22026-08-30 12:43:0427.73553-82.82485280°47km/h30309m9.4m/s-40.5°C0%0hPa0V00:00:0000:00:0000:00:00
ARGUS22026-08-30 12:42:4227.73371-82.82094291°88km/h30176m2.7m/s-40.7°C0%0hPa0V00:00:0000:00:0000:00:00
ARGUS22026-08-30 12:42:2127.73275-82.81721253°44km/h30051m4.1m/s-41.2°C0%0hPa0V00:00:0000:00:0000:00:00
ARGUS22026-08-30 12:42:0127.73233-82.81373294°88km/h29928m5.1m/s-41.9°C0%0hPa0V00:00:0000:00:0000:00:00
ARGUS22026-08-30 12:41:4027.73150-82.81005276°47km/h29815m4.9m/s-43.3°C0%0hPa0V00:00:0000:00:0000:00:00
ARGUS22026-08-30 12:41:2027.73067-82.80573279°110km/h29701m3.8m/s-43.0°C0%0hPa0V00:00:0000:00:0000:00:00
ARGUS22026-08-30 12:40:5927.73000-82.80133278°58km/h29594m7.2m/s-43.5°C0%0hPa0V00:00:0000:00:0000:00:00
ARGUS22026-08-30 12:40:3927.72947-82.79651279°113km/h29494m10.0m/s-45.5°C0%0hPa0V00:00:0000:00:0000:00:00
ARGUS22026-08-30 12:39:5727.72933-82.78626253°99km/h29287m4.8m/s-46.3°C0%0hPa0V00:00:0000:00:0000:00:00
ARGUS22026-08-30 12:39:3727.73009-82.78040280°88km/h29179m5.6m/s-46.7°C0%0hPa0V00:00:0000:00:0000:00:00
ARGUS22026-08-30 12:39:1627.73115-82.77557231°78km/h29068m3.4m/s-46.9°C0%0hPa0V00:00:0000:00:0000:00:00
ARGUS22026-08-30 12:38:5627.73284-82.77065251°115km/h28937m5.3m/s-46.8°C0%0hPa0V00:00:0000:00:0000:00:00
ARGUS22026-08-30 12:38:3527.73453-82.76641234°51km/h28805m5.7m/s-45.9°C0%0hPa0V00:00:0000:00:0000:00:00
ARGUS22026-08-30 12:38:1427.73628-82.76253247°97km/h28667m6.8m/s-45.5°C0%0hPa0V00:00:0000:00:0000:00:00
ARGUS22026-08-30 12:37:5427.73834-82.75933199°55km/h28524m5.0m/s-45.1°C0%0hPa0V00:00:0000:00:0000:00:00
ARGUS22026-08-30 12:37:3427.74004-82.75651258°66km/h28382m5.3m/s-45.1°C0%0hPa0V00:00:0000:00:0000:00:00
ARGUS22026-08-30 12:37:1427.74114-82.75413239°46km/h28246m6.5m/s-45.5°C0%0hPa0V00:00:0000:00:0000:00:00
ARGUS22026-08-30 12:36:5327.74203-82.75169235°46km/h28117m9.5m/s-46.2°C0%0hPa0V00:00:0000:00:0000:00:00
ARGUS22026-08-30 12:36:3327.74272-82.74937279°64km/h27995m4.8m/s-47.0°C0%0hPa0V00:00:0000:00:0000:00:00
ARGUS22026-08-30 12:36:1227.74263-82.74677245°37km/h27878m5.7m/s-48.0°C0%0hPa0V00:00:0000:00:0000:00:00
ARGUS22026-08-30 12:35:5127.74264-82.74403251°49km/h27769m5.7m/s-48.7°C0%0hPa0V00:00:0000:00:0000:00:00
ARGUS22026-08-30 12:35:3127.74298-82.74062276°62km/h27658m2.6m/s-48.9°C0%0hPa0V00:00:0000:00:0000:00:00
ARGUS22026-08-30 12:35:1027.74371-82.73720245°57km/h27543m4.5m/s-49.0°C0%0hPa0V00:00:0000:00:0000:00:00
ARGUS22026-08-30 12:34:5027.74454-82.73361237°44km/h27424m8.1m/s-49.4°C0%0hPa0V00:00:0000:00:0000:00:00
ARGUS22026-08-30 12:34:2827.74610-82.73049258°47km/h27297m7.7m/s-48.8°C0%0hPa0V00:00:0000:00:0000:00:00
ARGUS22026-08-30 12:34:0927.74736-82.72790237°49km/h27176m7.2m/s-48.2°C0%0hPa0V00:00:0000:00:0000:00:00
ARGUS22026-08-30 12:33:4827.74840-82.72572207°37km/h27039m3.8m/s-48.9°C0%0hPa0V00:00:0000:00:0000:00:00
ARGUS22026-08-30 12:33:2727.74934-82.72374255°37km/h26914m7.0m/s-49.0°C0%0hPa0V00:00:0000:00:0000:00:00
ARGUS22026-08-30 12:33:0727.75022-82.72208274°22km/h26780m8.6m/s-49.2°C0%0hPa0V00:00:0000:00:0000:00:00
ARGUS22026-08-30 12:32:4627.75056-82.72069311°20km/h26655m8.3m/s-49.7°C0%0hPa0V00:00:0000:00:0000:00:00
ARGUS22026-08-30 12:32:2627.75033-82.71894272°44km/h26525m4.3m/s-49.4°C0%0hPa0V00:00:0000:00:0000:00:00
ARGUS22026-08-30 12:32:0527.74973-82.71686284°69km/h26402m7.1m/s-49.5°C0%0hPa0V00:00:0000:00:0000:00:00
ARGUS22026-08-30 12:31:4527.74860-82.71408296°64km/h26283m8.4m/s-49.5°C0%0hPa0V00:00:0000:00:0000:00:00
ARGUS22026-08-30 12:31:2427.74774-82.71099285°51km/h26168m6.3m/s-49.4°C0%0hPa0V00:00:0000:00:0000:00:00
ARGUS22026-08-30 12:31:0427.74750-82.70809251°42km/h26048m6.5m/s-50.0°C0%0hPa0V00:00:0000:00:0000:00:00
ARGUS22026-08-30 12:30:4327.74800-82.70548271°64km/h25934m3.9m/s-50.4°C0%0hPa0V00:00:0000:00:0000:00:00
ARGUS22026-08-30 12:30:2327.74905-82.70297206°47km/h25818m6.7m/s-50.6°C0%0hPa0V00:00:0000:00:0000:00:00
ARGUS22026-08-30 12:30:0227.75017-82.70108236°51km/h25699m7.2m/s-50.3°C0%0hPa0V00:00:0000:00:0000:00:00
ARGUS22026-08-30 12:29:4127.75075-82.69942277°27km/h25588m4.8m/s-50.2°C0%0hPa0V00:00:0000:00:0000:00:00
ARGUS22026-08-30 12:29:2127.75060-82.69806315°35km/h25471m3.6m/s-50.6°C0%0hPa0V00:00:0000:00:0000:00:00
ARGUS22026-08-30 12:29:0027.74978-82.69623309°53km/h25357m4.0m/s-50.8°C0%0hPa0V00:00:0000:00:0000:00:00
ARGUS22026-08-30 12:28:3927.74854-82.69402291°53km/h25238m7.2m/s-50.4°C0%0hPa0V00:00:0000:00:0000:00:00
ARGUS22026-08-30 12:28:1927.74762-82.69115274°62km/h25124m7.4m/s-50.0°C0%0hPa0V00:00:0000:00:0000:00:00
ARGUS22026-08-30 12:27:5827.74688-82.68741261°55km/h25006m2.0m/s-51.5°C0%0hPa0V00:00:0000:00:0000:00:00
ARGUS22026-08-30 12:27:3827.74654-82.68357268°62km/h24896m6.3m/s-52.0°C0%0hPa0V00:00:0000:00:0000:00:00
ARGUS22026-08-30 12:27:1827.74630-82.68027286°46km/h24781m6.6m/s-52.4°C0%0hPa0V00:00:0000:00:0000:00:00
ARGUS22026-08-30 12:26:5827.74613-82.67737286°57km/h24672m6.0m/s-52.6°C0%0hPa0V00:00:0000:00:0000:00:00
ARGUS22026-08-30 12:26:3727.74599-82.67440285°51km/h24561m4.9m/s-52.3°C0%0hPa0V00:00:0000:00:0000:00:00
ARGUS22026-08-30 12:26:1627.74577-82.67144273°55km/h24453m6.2m/s-52.1°C0%0hPa0V00:00:0000:00:0000:00:00
ARGUS22026-08-30 12:25:5627.74558-82.66835260°62km/h24341m0.1m/s-52.1°C0%0hPa0V00:00:0000:00:0000:00:00
ARGUS22026-08-30 12:25:3527.74532-82.66547300°51km/h24235m7.1m/s-51.8°C0%0hPa0V00:00:0000:00:0000:00:00
ARGUS22026-08-30 12:25:1527.74462-82.66265294°40km/h24119m7.5m/s-51.8°C0%0hPa0V00:00:0000:00:0000:00:00
ARGUS22026-08-30 12:24:5427.74345-82.65980300°64km/h24005m4.9m/s-51.2°C0%0hPa0V00:00:0000:00:0000:00:00
ARGUS22026-08-30 12:24:3327.74232-82.65726304°53km/h23887m6.9m/s-51.2°C0%0hPa0V00:00:0000:00:0000:00:00
ARGUS22026-08-30 12:24:1227.74092-82.65479307°53km/h23764m6.5m/s-52.2°C0%0hPa0V00:00:0000:00:0000:00:00
ARGUS22026-08-30 12:23:3227.73813-82.64863299°62km/h23514m4.2m/s-51.7°C0%0hPa0V00:00:0000:00:0000:00:00
ARGUS22026-08-30 12:23:1127.73741-82.64523286°69km/h23397m5.5m/s-51.5°C0%0hPa0V00:00:0000:00:0000:00:00
ARGUS22026-08-30 12:22:5127.73684-82.64098279°64km/h23276m6.1m/s-51.9°C0%0hPa0V00:00:0000:00:0000:00:00
ARGUS22026-08-30 12:22:1027.73647-82.63325275°62km/h23042m7.0m/s-53.4°C0%0hPa0V00:00:0000:00:0000:00:00
ARGUS22026-08-30 12:21:5027.73602-82.62958279°77km/h22928m6.2m/s-54.6°C0%0hPa0V00:00:0000:00:0000:00:00
ARGUS22026-08-30 12:21:2927.73580-82.62544269°66km/h22809m5.2m/s-54.7°C0%0hPa0V00:00:0000:00:0000:00:00
ARGUS22026-08-30 12:21:0927.73644-82.62207259°57km/h22694m6.6m/s-55.4°C0%0hPa0V00:00:0000:00:0000:00:00
ARGUS22026-08-30 12:20:4827.73677-82.61864264°57km/h22572m5.0m/s-56.7°C0%0hPa0V00:00:0000:00:0000:00:00
ARGUS22026-08-30 12:20:2727.73727-82.61536258°60km/h22457m6.4m/s-57.0°C0%0hPa0V00:00:0000:00:0000:00:00
ARGUS22026-08-30 12:20:0727.73769-82.61197279°71km/h22339m3.1m/s-57.2°C0%0hPa0V00:00:0000:00:0000:00:00
ARGUS22026-08-30 12:19:4527.73778-82.60856259°58km/h22222m5.7m/s-56.5°C0%0hPa0V00:00:0000:00:0000:00:00
ARGUS22026-08-30 12:19:2527.73789-82.60471273°84km/h22113m4.3m/s-56.7°C0%0hPa0V00:00:0000:00:0000:00:00
ARGUS22026-08-30 12:19:0427.73810-82.60027262°64km/h21999m6.7m/s-56.2°C0%0hPa0V00:00:0000:00:0000:00:00
ARGUS22026-08-30 12:18:2427.73828-82.59372267°49km/h21786m5.7m/s-57.6°C0%0hPa0V00:00:0000:00:0000:00:00
ARGUS22026-08-30 12:18:0327.73884-82.59081247°46km/h21685m6.2m/s-58.1°C0%0hPa0V00:00:0000:00:0000:00:00
ARGUS22026-08-30 12:17:2227.73871-82.58640298°42km/h21476m5.7m/s-59.2°C0%0hPa0V00:00:0000:00:0000:00:00
ARGUS22026-08-30 12:17:0227.73823-82.58414288°44km/h21371m4.5m/s-59.0°C0%0hPa0V00:00:0000:00:0000:00:00
ARGUS22026-08-30 12:16:4127.73800-82.58160275°55km/h21266m6.4m/s-59.9°C0%0hPa0V00:00:0000:00:0000:00:00
ARGUS22026-08-30 12:16:2127.73753-82.57853287°66km/h21157m4.8m/s-60.5°C0%0hPa0V00:00:0000:00:0000:00:00
ARGUS22026-08-30 12:16:0027.73639-82.57521293°77km/h21056m5.0m/s-60.3°C0%0hPa0V00:00:0000:00:0000:00:00
ARGUS22026-08-30 12:15:4027.73536-82.57133281°66km/h20948m6.0m/s-61.0°C0%0hPa0V00:00:0000:00:0000:00:00
ARGUS22026-08-30 12:15:1927.73507-82.56734269°77km/h20845m5.6m/s-60.5°C0%0hPa0V00:00:0000:00:0000:00:00
ARGUS22026-08-30 12:14:5927.73516-82.56325264°60km/h20739m5.5m/s-61.3°C0%0hPa0V00:00:0000:00:0000:00:00
ARGUS22026-08-30 12:14:1827.73579-82.55545264°82km/h20533m5.6m/s-61.4°C0%0hPa0V00:00:0000:00:0000:00:00
ARGUS22026-08-30 12:13:5827.73644-82.55175254°69km/h20426m4.3m/s-61.1°C0%0hPa0V00:00:0000:00:0000:00:00
ARGUS22026-08-30 12:13:3727.73732-82.54849255°53km/h20320m4.5m/s-60.8°C0%0hPa0V00:00:0000:00:0000:00:00
ARGUS22026-08-30 12:13:1527.73817-82.54518261°64km/h20215m5.0m/s-61.0°C0%0hPa0V00:00:0000:00:0000:00:00
ARGUS22026-08-30 12:12:5527.73921-82.54193250°55km/h20121m5.7m/s-61.4°C0%0hPa0V00:00:0000:00:0000:00:00
ARGUS22026-08-30 12:12:3527.74026-82.53896252°62km/h20024m4.9m/s-61.7°C0%0hPa0V00:00:0000:00:0000:00:00
ARGUS22026-08-30 12:12:1427.74151-82.53672225°47km/h19930m5.3m/s-62.0°C0%0hPa0V00:00:0000:00:0000:00:00
ARGUS22026-08-30 12:11:5427.74296-82.53538202°31km/h19828m3.1m/s-62.2°C0%0hPa0V00:00:0000:00:0000:00:00
ARGUS22026-08-30 12:11:3327.74406-82.53450228°26km/h19735m3.5m/s-62.6°C0%0hPa0V00:00:0000:00:0000:00:00
ARGUS22026-08-30 12:11:1327.74477-82.53384271°11km/h19636m6.0m/s-64.6°C0%0hPa0V00:00:0000:00:0000:00:00
ARGUS22026-08-30 12:10:5327.74488-82.53290252°18km/h19540m5.1m/s-64.7°C0%0hPa0V00:00:0000:00:0000:00:00
ARGUS22026-08-30 12:10:3227.74468-82.53136275°37km/h19435m5.3m/s-64.4°C0%0hPa0V00:00:0000:00:0000:00:00
ARGUS22026-08-30 12:10:1127.74467-82.52933285°29km/h19337m5.9m/s-64.2°C0%0hPa0V00:00:0000:00:0000:00:00
ARGUS22026-08-30 12:09:5127.74504-82.52697224°53km/h19205m6.1m/s-63.9°C0%0hPa0V00:00:0000:00:0000:00:00
ARGUS22026-08-30 12:09:3027.74659-82.52482225°46km/h19092m5.6m/s-63.9°C0%0hPa0V00:00:0000:00:0000:00:00
ARGUS22026-08-30 12:09:0927.74829-82.52302224°37km/h18988m5.3m/s-64.0°C0%0hPa0V00:00:0000:00:0000:00:00
ARGUS22026-08-30 12:08:4927.75019-82.52175206°35km/h18875m4.5m/s-63.7°C0%0hPa0V00:00:0000:00:0000:00:00
ARGUS22026-08-30 12:08:2827.75177-82.52073215°44km/h18771m5.1m/s-63.0°C0%0hPa0V00:00:0000:00:0000:00:00
ARGUS22026-08-30 12:08:0727.75324-82.52002175°33km/h18654m5.7m/s-62.2°C0%0hPa0V00:00:0000:00:0000:00:00
ARGUS22026-08-30 12:07:4727.75423-82.51942225°9km/h18545m4.5m/s-63.3°C0%0hPa0V00:00:0000:00:0000:00:00
ARGUS22026-08-30 12:07:2727.75418-82.51908346°5km/h18441m6.0m/s-64.4°C0%0hPa0V00:00:0000:00:0000:00:00
ARGUS22026-08-30 12:07:0627.75352-82.51884319°20km/h18342m5.4m/s-64.3°C0%0hPa0V00:00:0000:00:0000:00:00
ARGUS22026-08-30 12:06:4627.75267-82.51796315°29km/h18240m5.6m/s-65.6°C0%0hPa0V00:00:0000:00:0000:00:00
ARGUS22026-08-30 12:06:2527.75168-82.51645302°35km/h18146m5.1m/s-65.4°C0%0hPa0V00:00:0000:00:0000:00:00
ARGUS22026-08-30 12:06:0427.75097-82.51499284°26km/h18050m4.8m/s-65.8°C0%0hPa0V00:00:0000:00:0000:00:00
ARGUS22026-08-30 12:05:4427.75060-82.51392262°16km/h17957m6.0m/s-66.1°C0%0hPa0V00:00:0000:00:0000:00:00
ARGUS22026-08-30 12:05:2427.75043-82.51328302°15km/h17858m5.3m/s-66.3°C0%0hPa0V00:00:0000:00:0000:00:00
ARGUS22026-08-30 12:05:0327.74978-82.51269337°29km/h17766m4.0m/s-66.4°C0%0hPa0V00:00:0000:00:0000:00:00
ARGUS22026-08-30 12:04:4327.74892-82.51175329°22km/h17667m4.0m/s-66.0°C0%0hPa0V00:00:0000:00:0000:00:00
ARGUS22026-08-30 12:04:2127.74837-82.51063305°22km/h17570m5.2m/s-65.6°C0%0hPa0V00:00:0000:00:0000:00:00
ARGUS22026-08-30 12:04:0127.74807-82.50948288°22km/h17478m4.4m/s-66.6°C0%0hPa0V00:00:0000:00:0000:00:00
ARGUS22026-08-30 12:03:4027.74762-82.50865305°11km/h17383m3.6m/s-67.2°C0%0hPa0V00:00:0000:00:0000:00:00
ARGUS22026-08-30 12:03:2027.74686-82.50821343°22km/h17293m3.4m/s-67.2°C0%0hPa0V00:00:0000:00:0000:00:00
ARGUS22026-08-30 12:02:5927.74567-82.50758342°33km/h17200m5.7m/s-66.9°C0%0hPa0V00:00:0000:00:0000:00:00
ARGUS22026-08-30 12:02:3927.74411-82.50678325°37km/h17104m5.0m/s-66.4°C0%0hPa0V00:00:0000:00:0000:00:00
ARGUS22026-08-30 12:02:1927.74229-82.50554332°47km/h17002m4.4m/s-65.9°C0%0hPa0V00:00:0000:00:0000:00:00
ARGUS22026-08-30 12:01:5827.74060-82.50397318°44km/h16903m5.1m/s-65.5°C0%0hPa0V00:00:0000:00:0000:00:00
ARGUS22026-08-30 12:01:3827.73922-82.502410km/h16794m3.6m/s-64.9°C0%0hPa0V00:00:0000:00:0000:00:00
ARGUS22026-08-30 12:01:1727.73817-82.50111311°55km/h16688m3.0m/s-64.3°C0%0hPa0V00:00:0000:00:0000:00:00
ARGUS22026-08-30 12:00:5727.73743-82.50051330°18km/h16587m5.2m/s-64.8°C0%0hPa0V00:00:0000:00:0000:00:00
ARGUS22026-08-30 12:00:3627.73710-82.50010329°7km/h16496m4.0m/s-65.5°C0%0hPa0V00:00:0000:00:0000:00:00
ARGUS22026-08-30 12:00:1727.73668-82.50001338°5km/h16398m3.7m/s-66.8°C0%0hPa0V00:00:0000:00:0000:00:00
ARGUS22026-08-30 11:59:5527.73633-82.49963335°11km/h16305m5.5m/s-66.7°C0%0hPa0V00:00:0000:00:0000:00:00
ARGUS22026-08-30 11:59:3527.73636-82.49915202°11km/h16206m5.5m/s-67.2°C0%0hPa0V00:00:0000:00:0000:00:00
ARGUS22026-08-30 11:59:1427.73677-82.49892167°7km/h16105m6.2m/s-67.0°C0%0hPa0V00:00:0000:00:0000:00:00
ARGUS22026-08-30 11:58:5327.73715-82.49885179°15km/h16009m4.7m/s-66.4°C0%0hPa0V00:00:0000:00:0000:00:00
ARGUS22026-08-30 11:58:3227.73787-82.49854175°5km/h15908m4.7m/s-65.8°C0%0hPa0V00:00:0000:00:0000:00:00
ARGUS22026-08-30 11:58:1227.73889-82.49799191°33km/h15808m3.7m/s-65.2°C0%0hPa0V00:00:0000:00:0000:00:00
ARGUS22026-08-30 11:57:5227.74021-82.49741187°37km/h15718m4.8m/s-65.2°C0%0hPa0V00:00:0000:00:0000:00:00
ARGUS22026-08-30 11:57:3127.74159-82.49681192°29km/h15631m5.1m/s-65.1°C0%0hPa0V00:00:0000:00:0000:00:00
ARGUS22026-08-30 11:57:1127.74315-82.49644206°38km/h15541m3.6m/s-65.2°C0%0hPa0V00:00:0000:00:0000:00:00
ARGUS22026-08-30 11:56:5027.74456-82.49646172°18km/h15456m4.6m/s-65.3°C0%0hPa0V00:00:0000:00:0000:00:00
ARGUS22026-08-30 11:56:3027.74559-82.49651152°7km/h15359m3.4m/s-65.6°C0%0hPa0V00:00:0000:00:0000:00:00
ARGUS22026-08-30 11:56:0927.74609-82.49641249°7km/h15277m5.2m/s-69.5°C0%0hPa0V00:00:0000:00:0000:00:00
ARGUS22026-08-30 11:55:4927.74648-82.49648157°11km/h15185m4.9m/s-70.3°C0%0hPa0V00:00:0000:00:0000:00:00
ARGUS22026-08-30 11:55:2827.74683-82.49690153°11km/h15094m5.5m/s-70.1°C0%0hPa0V00:00:0000:00:0000:00:00
ARGUS22026-08-30 11:55:0827.74727-82.49749112°15km/h14997m5.0m/s-69.5°C0%0hPa0V00:00:0000:00:0000:00:00
ARGUS22026-08-30 11:54:4727.74773-82.49817126°20km/h14904m4.9m/s-68.8°C0%0hPa0V00:00:0000:00:0000:00:00
ARGUS22026-08-30 11:54:2727.74816-82.49887140°11km/h14804m3.6m/s-68.0°C0%0hPa0V00:00:0000:00:0000:00:00
ARGUS22026-08-30 11:54:0527.74863-82.49958138°18km/h14704m5.7m/s-67.4°C0%0hPa0V00:00:0000:00:0000:00:00
ARGUS22026-08-30 11:53:4527.74909-82.50014194°7km/h14608m4.7m/s-66.7°C0%0hPa0V00:00:0000:00:0000:00:00
ARGUS22026-08-30 11:53:2527.74918-82.5007079°22km/h14498m3.4m/s-66.1°C0%0hPa0V00:00:0000:00:0000:00:00
ARGUS22026-08-30 11:53:0427.74911-82.50119339°5km/h14407m5.2m/s-66.1°C0%0hPa0V00:00:0000:00:0000:00:00
ARGUS22026-08-30 11:52:4427.74901-82.5015354°15km/h14313m3.3m/s-65.6°C0%0hPa0V00:00:0000:00:0000:00:00
ARGUS22026-08-30 11:52:2327.74864-82.5015210°15km/h14221m4.0m/s-65.6°C0%0hPa0V00:00:0000:00:0000:00:00
ARGUS22026-08-30 11:52:0327.74836-82.5014876°5km/h14130m3.9m/s-65.4°C0%0hPa0V00:00:0000:00:0000:00:00
ARGUS22026-08-30 11:51:4227.74807-82.5015168°4km/h14042m4.0m/s-64.7°C0%0hPa0V00:00:0000:00:0000:00:00
ARGUS22026-08-30 11:51:2127.74788-82.501534km/h13950m5.6m/s-63.9°C0%0hPa0V00:00:0000:00:0000:00:00
ARGUS22026-08-30 11:51:0127.74776-82.5015926°7km/h13860m4.2m/s-63.2°C0%0hPa0V00:00:0000:00:0000:00:00
ARGUS22026-08-30 11:50:4127.74736-82.50136292°9km/h13763m3.3m/s-62.7°C0%0hPa0V00:00:0000:00:0000:00:00
ARGUS22026-08-30 11:50:2027.74708-82.50078310°11km/h13669m5.7m/s-62.0°C0%0hPa0V00:00:0000:00:0000:00:00
ARGUS22026-08-30 11:50:0027.74692-82.50013258°5km/h13575m3.0m/s-61.3°C0%0hPa0V00:00:0000:00:0000:00:00
ARGUS22026-08-30 11:49:3827.74664-82.49947314°11km/h13483m3.7m/s-60.5°C0%0hPa0V00:00:0000:00:0000:00:00
ARGUS22026-08-30 11:49:1827.74617-82.49882312°9km/h13394m3.6m/s-60.0°C0%0hPa0V00:00:0000:00:0000:00:00
ARGUS22026-08-30 11:48:5827.74533-82.49821346°15km/h13302m4.9m/s-59.5°C0%0hPa0V00:00:0000:00:0000:00:00
ARGUS22026-08-30 11:48:3727.74451-82.49779356°16km/h13214m4.9m/s-58.8°C0%0hPa0V00:00:0000:00:0000:00:00
ARGUS22026-08-30 11:48:1627.74356-82.49753323°18km/h13120m4.8m/s-58.1°C0%0hPa0V00:00:0000:00:0000:00:00
ARGUS22026-08-30 11:47:5627.74257-82.49717360°18km/h13027m3.9m/s-57.3°C0%0hPa0V00:00:0000:00:0000:00:00
ARGUS22026-08-30 11:47:3527.74170-82.4969320km/h12925m4.7m/s-56.4°C0%0hPa0V00:00:0000:00:0000:00:00
ARGUS22026-08-30 11:47:1527.74083-82.49657326°20km/h12821m5.2m/s-55.5°C0%0hPa0V00:00:0000:00:0000:00:00
ARGUS22026-08-30 11:46:5427.73979-82.49617322°26km/h12713m4.1m/s-54.5°C0%0hPa0V00:00:0000:00:0000:00:00
ARGUS22026-08-30 11:46:3427.73882-82.49573327°20km/h12621m5.6m/s-53.7°C0%0hPa0V00:00:0000:00:0000:00:00
ARGUS22026-08-30 11:46:1427.73796-82.4953219°16km/h12530m4.7m/s-52.8°C0%0hPa0V00:00:0000:00:0000:00:00
ARGUS22026-08-30 11:45:5327.73705-82.4949711°13km/h12442m5.1m/s-52.0°C0%0hPa0V00:00:0000:00:0000:00:00
ARGUS22026-08-30 11:45:3327.73639-82.49432307°15km/h12334m3.6m/s-51.1°C0%0hPa0V00:00:0000:00:0000:00:00
ARGUS22026-08-30 11:45:1227.73562-82.49349312°24km/h12243m5.3m/s-50.3°C0%0hPa0V00:00:0000:00:0000:00:00
ARGUS22026-08-30 11:44:5227.73486-82.49248322°24km/h12152m4.5m/s-49.5°C0%0hPa0V00:00:0000:00:0000:00:00
ARGUS22026-08-30 11:44:3127.73402-82.49140308°26km/h12069m3.6m/s-48.8°C0%0hPa0V00:00:0000:00:0000:00:00
ARGUS22026-08-30 11:44:1127.73308-82.49020316°24km/h11976m2.8m/s-48.1°C0%0hPa0V00:00:0000:00:0000:00:00
ARGUS22026-08-30 11:43:4927.73224-82.48882299°24km/h11882m3.4m/s-47.3°C0%0hPa0V00:00:0000:00:0000:00:00
ARGUS22026-08-30 11:43:2927.73151-82.48736288°33km/h11799m3.2m/s-46.7°C0%0hPa0V00:00:0000:00:0000:00:00
ARGUS22026-08-30 11:43:0927.73083-82.48593290°26km/h11705m4.5m/s-46.0°C0%0hPa0V00:00:0000:00:0000:00:00
ARGUS22026-08-30 11:42:4827.73022-82.48454298°35km/h11622m3.8m/s-45.4°C0%0hPa0V00:00:0000:00:0000:00:00
ARGUS22026-08-30 11:42:0727.72903-82.48155290°26km/h11446m3.5m/s-44.1°C0%0hPa0V00:00:0000:00:0000:00:00
ARGUS22026-08-30 11:41:4727.72825-82.47995335°37km/h11354m4.8m/s-43.2°C0%0hPa0V00:00:0000:00:0000:00:00
ARGUS22026-08-30 11:41:2627.72745-82.47853287°16km/h11245m3.9m/s-42.1°C0%0hPa0V00:00:0000:00:0000:00:00
ARGUS22026-08-30 11:41:0627.72678-82.47714297°18km/h11144m3.9m/s-41.2°C0%0hPa0V00:00:0000:00:0000:00:00
ARGUS22026-08-30 11:40:4527.72606-82.47590302°29km/h11058m2.5m/s-40.5°C0%0hPa0V00:00:0000:00:0000:00:00
ARGUS22026-08-30 11:40:2527.72510-82.47471304°22km/h10972m3.5m/s-39.9°C0%0hPa0V00:00:0000:00:0000:00:00
ARGUS22026-08-30 11:40:0427.72416-82.47342301°27km/h10892m3.3m/s-39.2°C0%0hPa0V00:00:0000:00:0000:00:00
ARGUS22026-08-30 11:39:4427.72330-82.47207316°31km/h10807m3.6m/s-38.5°C0%0hPa0V00:00:0000:00:0000:00:00
ARGUS22026-08-30 11:39:2227.72245-82.47068306°31km/h10726m4.6m/s-38.3°C0%0hPa0V00:00:0000:00:0000:00:00
ARGUS22026-08-30 11:39:0227.72182-82.46929301°31km/h10646m4.1m/s-37.7°C0%0hPa0V00:00:0000:00:0000:00:00
ARGUS22026-08-30 11:38:4127.72121-82.46757297°26km/h10558m5.2m/s-37.1°C0%0hPa0V00:00:0000:00:0000:00:00
ARGUS22026-08-30 11:38:2127.72090-82.46598277°38km/h10473m3.3m/s-36.3°C0%0hPa0V00:00:0000:00:0000:00:00
ARGUS22026-08-30 11:38:0027.72068-82.46436281°22km/h10381m4.5m/s-35.6°C0%0hPa0V00:00:0000:00:0000:00:00
ARGUS22026-08-30 11:37:4127.72052-82.46301271°31km/h10298m4.3m/s-34.8°C0%0hPa0V00:00:0000:00:0000:00:00
ARGUS22026-08-30 11:37:1927.72031-82.46136274°31km/h10206m4.2m/s-34.2°C0%0hPa0V00:00:0000:00:0000:00:00
ARGUS22026-08-30 11:36:5927.72012-82.45990289°22km/h10117m5.2m/s-33.6°C0%0hPa0V00:00:0000:00:0000:00:00
ARGUS22026-08-30 11:36:3927.71994-82.45851291°20km/h10023m4.1m/s-32.9°C0%0hPa0V00:00:0000:00:0000:00:00
ARGUS22026-08-30 11:36:1827.71951-82.45725311°22km/h9933m4.9m/s-32.3°C0%0hPa0V00:00:0000:00:0000:00:00
ARGUS22026-08-30 11:35:5827.71918-82.45602292°20km/h9840m4.6m/s-31.6°C0%0hPa0V00:00:0000:00:0000:00:00
ARGUS22026-08-30 11:35:3727.71886-82.45490283°18km/h9751m4.2m/s-31.0°C0%0hPa0V00:00:0000:00:0000:00:00
ARGUS22026-08-30 11:35:1727.71843-82.45367289°18km/h9655m3.9m/s-30.3°C0%0hPa0V00:00:0000:00:0000:00:00
ARGUS22026-08-30 11:34:5727.71808-82.45240271°31km/h9566m4.0m/s-29.7°C0%0hPa0V00:00:0000:00:0000:00:00
ARGUS22026-08-30 11:34:3627.71788-82.45110275°16km/h9469m4.2m/s-28.9°C0%0hPa0V00:00:0000:00:0000:00:00
ARGUS22026-08-30 11:34:1427.71771-82.45011227°24km/h9335m9.1m/s-27.6°C0%0hPa0V00:00:0000:00:0000:00:00
ARGUS22026-08-30 11:33:5427.71769-82.44934259°15km/h9205m7.7m/s-26.6°C0%0hPa0V00:00:0000:00:0000:00:00
ARGUS22026-08-30 11:33:3427.71769-82.44899203°11km/h9091m5.6m/s-25.8°C0%0hPa0V00:00:0000:00:0000:00:00
ARGUS22026-08-30 11:33:1327.71794-82.44871210°7km/h9000m3.9m/s-25.1°C0%0hPa0V00:00:0000:00:0000:00:00
ARGUS22026-08-30 11:32:5327.71824-82.44832223°9km/h8910m2.7m/s-24.8°C0%0hPa0V00:00:0000:00:0000:00:00
ARGUS22026-08-30 11:32:3227.71860-82.44798170°13km/h8823m5.2m/s-24.1°C0%0hPa0V00:00:0000:00:0000:00:00
ARGUS22026-08-30 11:32:1227.71909-82.44781204°13km/h8735m4.9m/s-23.4°C0%0hPa0V00:00:0000:00:0000:00:00
ARGUS22026-08-30 11:31:5127.71949-82.44763179°9km/h8651m4.4m/s-22.7°C0%0hPa0V00:00:0000:00:0000:00:00
ARGUS22026-08-30 11:31:3127.71989-82.44737198°4km/h8567m4.0m/s-22.1°C0%0hPa0V00:00:0000:00:0000:00:00
ARGUS22026-08-30 11:31:1027.72026-82.44706204°15km/h8488m3.6m/s-21.4°C0%0hPa0V00:00:0000:00:0000:00:00
ARGUS22026-08-30 11:30:5027.72067-82.446750km/h8409m3.4m/s-20.9°C0%0hPa0V00:00:0000:00:0000:00:00
ARGUS22026-08-30 11:30:2927.72088-82.44636260°9km/h8330m3.9m/s-20.3°C0%0hPa0V00:00:0000:00:0000:00:00
ARGUS22026-08-30 11:30:0927.72094-82.44608196°11km/h8244m4.8m/s-20.0°C0%0hPa0V00:00:0000:00:0000:00:00
ARGUS22026-08-30 11:29:4927.72109-82.44540250°22km/h8154m5.7m/s-19.4°C0%0hPa0V00:00:0000:00:0000:00:00
ARGUS22026-08-30 11:29:2827.72129-82.44469231°5km/h8051m5.1m/s-18.6°C0%0hPa0V00:00:0000:00:0000:00:00
ARGUS22026-08-30 11:29:0627.72142-82.44366283°31km/h7963m4.0m/s-18.1°C0%0hPa0V00:00:0000:00:0000:00:00
ARGUS22026-08-30 11:28:3827.72128-82.44249216°5km/h7819m4.7m/s-17.0°C0%0hPa0V00:00:0000:00:0000:00:00
ARGUS22026-08-30 11:28:1727.72140-82.44198234°13km/h7737m4.6m/s-16.3°C0%0hPa0V00:00:0000:00:0000:00:00
ARGUS22026-08-30 11:27:5627.72149-82.441510km/h7659m3.6m/s-15.5°C0%0hPa0V00:00:0000:00:0000:00:00
ARGUS22026-08-30 11:27:3627.72153-82.44092258°18km/h7574m5.5m/s-15.1°C0%0hPa0V00:00:0000:00:0000:00:00
ARGUS22026-08-30 11:27:1527.72172-82.44026239°18km/h7492m4.5m/s-14.6°C0%0hPa0V00:00:0000:00:0000:00:00
ARGUS22026-08-30 11:26:5527.72205-82.43947255°20km/h7408m5.3m/s-14.0°C0%0hPa0V00:00:0000:00:0000:00:00
ARGUS22026-08-30 11:26:3327.72240-82.43867267°15km/h7316m4.1m/s-13.9°C0%0hPa0V00:00:0000:00:0000:00:00
ARGUS22026-08-30 11:26:1327.72254-82.43780212°13km/h7235m3.9m/s-13.4°C0%0hPa0V00:00:0000:00:0000:00:00
ARGUS22026-08-30 11:25:5227.72279-82.43706260°11km/h7153m3.2m/s-13.0°C0%0hPa0V00:00:0000:00:0000:00:00
ARGUS22026-08-30 11:25:3227.72294-82.43638272°18km/h7070m4.4m/s-12.5°C0%0hPa0V00:00:0000:00:0000:00:00
ARGUS22026-08-30 11:25:1127.72308-82.43580272°4km/h6983m3.8m/s-12.0°C0%0hPa0V00:00:0000:00:0000:00:00
ARGUS22026-08-30 11:24:5127.72317-82.43505285°24km/h6902m4.2m/s-11.5°C0%0hPa0V00:00:0000:00:0000:00:00
ARGUS22026-08-30 11:24:3127.72330-82.43394285°24km/h6810m5.0m/s-10.7°C0%0hPa0V00:00:0000:00:0000:00:00
ARGUS22026-08-30 11:24:1027.72336-82.43286269°26km/h6723m4.5m/s-10.2°C0%0hPa0V00:00:0000:00:0000:00:00
ARGUS22026-08-30 11:23:4927.72351-82.43198269°9km/h6632m4.5m/s-9.6°C0%0hPa0V00:00:0000:00:0000:00:00
ARGUS22026-08-30 11:23:2927.72359-82.43120283°16km/h6544m5.6m/s-9.2°C0%0hPa0V00:00:0000:00:0000:00:00
ARGUS22026-08-30 11:23:0827.72376-82.43030258°18km/h6452m3.4m/s-8.5°C0%0hPa0V00:00:0000:00:0000:00:00
ARGUS22026-08-30 11:22:4827.72391-82.42963296°4km/h6368m5.0m/s-8.0°C0%0hPa0V00:00:0000:00:0000:00:00
ARGUS22026-08-30 11:22:2827.72406-82.42918128°5km/h6265m6.1m/s-7.7°C0%0hPa0V00:00:0000:00:0000:00:00
ARGUS22026-08-30 11:22:0627.72436-82.42829249°24km/h6152m4.4m/s-7.8°C0%0hPa0V00:00:0000:00:0000:00:00
ARGUS22026-08-30 11:21:4627.72440-82.42786326°5km/h6053m4.7m/s-7.2°C0%0hPa0V00:00:0000:00:0000:00:00
ARGUS22026-08-30 11:21:2627.72453-82.42736260°11km/h5951m4.0m/s-6.6°C0%0hPa0V00:00:0000:00:0000:00:00
ARGUS22026-08-30 11:21:0527.72456-82.42690307°4km/h5839m4.3m/s-5.7°C0%0hPa0V00:00:0000:00:0000:00:00
ARGUS22026-08-30 11:20:4427.72454-82.42651291°13km/h5742m4.2m/s-4.8°C0%0hPa0V00:00:0000:00:0000:00:00
ARGUS22026-08-30 11:20:2327.72446-82.42631286°9km/h5642m4.3m/s-4.0°C0%0hPa0V00:00:0000:00:0000:00:00
ARGUS22026-08-30 11:20:0227.72441-82.42586220°7km/h5546m5.5m/s-3.3°C0%0hPa0V00:00:0000:00:0000:00:00
ARGUS22026-08-30 11:19:2727.72473-82.4254245°9km/h5370m5.6m/s-2.7°C0%0hPa0V00:00:0000:00:0000:00:00
ARGUS22026-08-30 11:19:0527.72438-82.42481305°18km/h5259m5.9m/s-2.2°C0%0hPa0V00:00:0000:00:0000:00:00
ARGUS22026-08-30 11:18:3527.72374-82.42393298°16km/h5118m3.8m/s-1.3°C0%0hPa0V00:00:0000:00:0000:00:00
ARGUS22026-08-30 11:18:0627.72305-82.42306352°16km/h4976m4.8m/s-0.7°C0%0hPa0V00:00:0000:00:0000:00:00
ARGUS22026-08-30 11:17:4627.72270-82.4226913km/h4856m4.1m/s0.3°C0%0hPa0V00:00:0000:00:0000:00:00
ARGUS22026-08-30 11:17:2527.72254-82.42239206°11km/h4744m8.3m/s-0.0°C0%0hPa0V00:00:0000:00:0000:00:00
ARGUS22026-08-30 11:17:0527.72293-82.42211212°20km/h4631m5.1m/s0.1°C0%0hPa0V00:00:0000:00:0000:00:00
ARGUS22026-08-30 11:16:4427.72343-82.42221230°15km/h4532m6.0m/s0.8°C0%0hPa0V00:00:0000:00:0000:00:00
ARGUS22026-08-30 11:16:2427.72408-82.42226150°15km/h4422m5.4m/s1.1°C0%0hPa0V00:00:0000:00:0000:00:00
ARGUS22026-08-30 11:16:0327.72450-82.42261214°2km/h4330m4.8m/s1.2°C0%0hPa0V00:00:0000:00:0000:00:00
ARGUS22026-08-30 11:15:4327.72527-82.42265258°7km/h4225m3.8m/s1.7°C0%0hPa0V00:00:0000:00:0000:00:00
ARGUS22026-08-30 11:15:2127.72562-82.42302210°18km/h4109m5.2m/s1.8°C0%0hPa0V00:00:0000:00:0000:00:00
ARGUS22026-08-30 11:15:0127.72567-82.42300332°5km/h3987m7.1m/s2.7°C0%0hPa0V00:00:0000:00:0000:00:00
ARGUS22026-08-30 11:14:4127.72546-82.42236304°24km/h3879m4.3m/s3.3°C0%0hPa0V00:00:0000:00:0000:00:00
ARGUS22026-08-30 11:14:2027.72499-82.4221720°20km/h3766m6.4m/s4.1°C0%0hPa0V00:00:0000:00:0000:00:00
ARGUS22026-08-30 11:13:5927.72452-82.42186275°18km/h3647m5.0m/s5.1°C0%0hPa0V00:00:0000:00:0000:00:00
ARGUS22026-08-30 11:13:3927.72378-82.42156355°33km/h3540m5.6m/s6.0°C0%0hPa0V00:00:0000:00:0000:00:00
ARGUS22026-08-30 11:13:1827.72313-82.42134252°13km/h3426m6.0m/s6.7°C0%0hPa0V00:00:0000:00:0000:00:00
ARGUS22026-08-30 11:12:5827.72267-82.4209635°20km/h3318m5.4m/s7.7°C0%0hPa0V00:00:0000:00:0000:00:00
ARGUS22026-08-30 11:12:3827.72215-82.42078300°7km/h3204m5.3m/s8.2°C0%0hPa0V00:00:0000:00:0000:00:00
ARGUS22026-08-30 11:12:1727.72186-82.42062246°7km/h3105m4.2m/s8.8°C0%0hPa0V00:00:0000:00:0000:00:00
ARGUS22026-08-30 11:11:5727.72127-82.4207118km/h3008m5.0m/s9.2°C0%0hPa0V00:00:0000:00:0000:00:00
ARGUS22026-08-30 11:11:3527.72096-82.4207878°9km/h2890m5.2m/s9.7°C0%0hPa0V00:00:0000:00:0000:00:00
ARGUS22026-08-30 11:11:1427.72026-82.42070302°18km/h2781m4.1m/s10.3°C0%0hPa0V00:00:0000:00:0000:00:00
ARGUS22026-08-30 11:10:5327.72014-82.42050342°15km/h2665m6.9m/s11.3°C0%0hPa0V00:00:0000:00:0000:00:00
ARGUS22026-08-30 11:08:5427.71775-82.415957km/h2117m2.5m/s14.7°C0%0hPa0V00:00:0000:00:0000:00:00
ARGUS22026-08-30 11:08:3327.71740-82.41530272°24km/h2027m4.6m/s15.0°C0%0hPa0V00:00:0000:00:0000:00:00
ARGUS22026-08-30 11:08:1327.71733-82.41459224°13km/h1924m6.3m/s15.6°C0%0hPa0V00:00:0000:00:0000:00:00
ARGUS22026-08-30 11:07:5227.71724-82.41357280°29km/h1819m3.8m/s16.1°C0%0hPa0V00:00:0000:00:0000:00:00
ARGUS22026-08-30 11:07:2927.71702-82.4128696°5km/h1698m4.2m/s16.4°C0%0hPa0V00:00:0000:00:0000:00:00
ARGUS22026-08-30 11:07:0827.71656-82.41251180°9km/h1589m6.4m/s17.3°C0%0hPa0V00:00:0000:00:0000:00:00
ARGUS22026-08-30 11:06:4727.71616-82.41236278°16km/h1486m7.1m/s18.1°C0%0hPa0V00:00:0000:00:0000:00:00
ARGUS22026-08-30 11:06:2627.71581-82.41226287°13km/h1367m4.7m/s18.6°C0%0hPa0V00:00:0000:00:0000:00:00
ARGUS22026-08-30 11:06:0527.71501-82.4121649°13km/h1265m4.9m/s19.3°C0%0hPa0V00:00:0000:00:0000:00:00


GPX KML Map

© wettersonde.net (DO2JMG) - 2026  -  -